Time;durP1;ratioP1;P1;durP2;ratioP2;P2;SDS_P1;SDS_P2;PMS_P1;PMS_P2;Temp;Humidity;BMP_temperature;BMP_pressure;BME280_temperature;BME280_humidity;BME280_pressure;Samples;Min_cycle;Max_cycle;Signal;HPM_P1;HPM_P2
2022/01/10 00:00:40;;;;;;;0.00;0.00;;;;;20.60;100587.00;;;;5087293;28;20115;-80
2022/01/10 00:03:10;;;;;;;0.00;0.00;;;;;20.60;100604.00;;;;5089299;28;20451;-78
2022/01/10 00:05:40;;;;;;;0.00;0.00;;;;;20.60;100607.00;;;;5088384;28;20063;-77
2022/01/10 00:08:11;;;;;;;0.00;0.00;;;;;20.60;100603.00;;;;5086148;28;20044;-78
2022/01/10 00:10:40;;;;;;;;;;;;;20.60;100619.00;;;;5089156;28;20036;-78
2022/01/10 00:13:11;;;;;;;0.00;0.00;;;;;20.60;100607.00;;;;5088531;28;19969;-77
2022/01/10 00:15:40;;;;;;;0.00;0.00;;;;;20.40;100616.00;;;;5089333;28;20047;-78
2022/01/10 00:18:10;;;;;;;0.00;0.00;;;;;20.50;100621.00;;;;5088446;28;20388;-78
2022/01/10 00:20:39;;;;;;;0.00;0.00;;;;;20.40;100623.00;;;;5088642;28;20114;-79
2022/01/10 00:23:09;;;;;;;0.00;0.00;;;;;20.30;100618.00;;;;5088763;28;20400;-78
2022/01/10 00:25:39;;;;;;;0.00;0.00;;;;;20.40;100619.00;;;;5087983;28;20119;-78
2022/01/10 00:28:08;;;;;;;0.00;0.00;;;;;20.40;100633.00;;;;5088498;28;20044;-77
2022/01/10 00:30:38;;;;;;;0.00;0.00;;;;;20.40;100638.00;;;;5088374;28;20047;-78
2022/01/10 00:33:07;;;;;;;0.00;0.00;;;;;20.30;100635.00;;;;5088794;28;20048;-78
2022/01/10 00:35:37;;;;;;;0.00;0.00;;;;;20.30;100642.00;;;;5089269;28;20072;-77
2022/01/10 00:38:06;;;;;;;1255.88;144.82;;;;;20.20;100646.00;;;;5087659;28;20113;-78
2022/01/10 00:40:36;;;;;;;0.00;0.00;;;;;20.30;100634.00;;;;5087601;28;20047;-78
2022/01/10 00:43:05;;;;;;;0.00;0.00;;;;;20.20;100635.00;;;;5088583;28;20044;-78
2022/01/10 00:45:34;;;;;;;0.57;0.17;;;;;20.30;100643.00;;;;5088441;28;20539;-77
2022/01/10 00:48:05;;;;;;;;;;;;;20.20;100654.00;;;;5089146;28;20044;-78
2022/01/10 00:50:34;;;;;;;0.00;0.00;;;;;20.10;100646.00;;;;5086546;28;20387;-78
2022/01/10 00:53:04;;;;;;;0.15;0.15;;;;;20.10;100647.00;;;;5087521;28;20054;-78
2022/01/10 00:55:35;;;;;;;0.00;0.00;;;;;20.10;100643.00;;;;5087289;28;20071;-77
2022/01/10 00:58:05;;;;;;;0.00;0.00;;;;;20.10;100655.00;;;;5087290;28;20048;-76
2022/01/10 01:00:35;;;;;;;0.00;0.00;;;;;20.20;100649.00;;;;5088552;28;20048;-79
2022/01/10 01:03:06;;;;;;;0.00;0.00;;;;;20.10;100656.00;;;;5088566;28;20051;-76
2022/01/10 01:05:40;;;;;;;0.00;0.00;;;;;20.20;100639.00;;;;5088441;28;20520;-76
2022/01/10 01:08:12;;;;;;;0.45;0.38;;;;;20.10;100635.00;;;;5088823;28;20047;-76
2022/01/10 01:16:09;;;;;;;0.00;0.00;;;;;20.00;100651.00;;;;5086543;28;20044;-78
2022/01/10 01:24:09;;;;;;;0.00;0.00;;;;;20.10;100641.00;;;;5088336;28;20044;-78
2022/01/10 01:26:57;;;;;;;0.00;0.00;;;;;20.00;100651.00;;;;5086963;28;20143;-78
2022/01/10 01:29:29;;;;;;;0.00;0.00;;;;;20.00;100646.00;;;;5086150;28;20519;-78
2022/01/10 01:31:59;;;;;;;0.00;0.00;;;;;20.10;100654.00;;;;5086485;28;20094;-77
2022/01/10 01:34:29;;;;;;;0.00;0.00;;;;;19.90;100658.00;;;;5088268;28;20040;-78
2022/01/10 01:36:59;;;;;;;0.00;0.00;;;;;19.90;100649.00;;;;5088056;28;20044;-77
2022/01/10 01:39:31;;;;;;;0.00;0.00;;;;;19.90;100651.00;;;;5086528;28;20415;-78
2022/01/10 01:42:17;;;;;;;1.27;0.10;;;;;19.80;100653.00;;;;5085504;28;20584;-78
2022/01/10 01:44:49;;;;;;;0.00;0.00;;;;;19.80;100659.00;;;;5086173;28;20073;-78
2022/01/10 01:47:20;;;;;;;0.00;0.00;;;;;19.90;100655.00;;;;5086040;28;20048;-78
2022/01/10 01:49:51;;;;;;;0.00;0.00;;;;;19.80;100643.00;;;;5086485;28;20426;-78
2022/01/10 01:52:21;;;;;;;0.00;0.00;;;;;19.90;100648.00;;;;5085945;28;20430;-77
2022/01/10 01:54:51;;;;;;;1.95;0.10;;;;;19.90;100668.00;;;;5086292;28;20032;-78
2022/01/10 01:57:21;;;;;;;4.68;1.35;;;;;19.80;100659.00;;;;5086032;28;20060;-77
2022/01/10 01:59:51;;;;;;;0.10;0.10;;;;;19.80;100660.00;;;;5085903;28;21284;-77
2022/01/10 02:02:20;;;;;;;0.00;0.00;;;;;19.90;100667.00;;;;5085304;28;20058;-78
2022/01/10 02:04:50;;;;;;;9.13;0.45;;;;;19.90;100664.00;;;;5085304;28;20044;-77
2022/01/10 02:07:19;;;;;;;0.00;0.00;;;;;20.00;100675.00;;;;5087246;28;20055;-77
2022/01/10 02:09:49;;;;;;;0.00;0.00;;;;;19.90;100658.00;;;;5086901;28;20507;-77
2022/01/10 02:12:18;;;;;;;0.35;0.22;;;;;19.90;100660.00;;;;5086189;28;20153;-77
2022/01/10 02:14:48;;;;;;;0.05;0.05;;;;;19.90;100673.00;;;;5085948;28;20497;-78
2022/01/10 02:17:22;;;;;;;0.00;0.00;;;;;20.10;100660.00;;;;5087245;28;20086;-78
2022/01/10 02:19:58;;;;;;;0.00;0.00;;;;;20.00;100667.00;;;;5085526;28;20059;-77
2022/01/10 02:22:33;;;;;;;0.00;0.00;;;;;19.80;100658.00;;;;5084985;28;20131;-77
2022/01/10 02:25:21;;;;;;;0.00;0.00;;;;;19.70;100656.00;;;;5086798;28;20101;-77
2022/01/10 02:27:53;;;;;;;0.00;0.00;;;;;19.60;100675.00;;;;5085736;28;20461;-77
2022/01/10 02:30:22;;;;;;;0.00;0.00;;;;;19.70;100651.00;;;;5085248;28;20520;-78
2022/01/10 02:32:56;;;;;;;0.00;0.00;;;;;19.60;100667.00;;;;5085044;28;20075;-77
2022/01/10 02:35:39;;;;;;;0.00;0.00;;;;;19.50;100655.00;;;;5085591;28;20067;-78
2022/01/10 02:38:08;;;;;;;0.00;0.00;;;;;19.50;100650.00;;;;5086880;28;20107;-77
2022/01/10 02:40:38;;;;;;;0.00;0.00;;;;;19.40;100661.00;;;;5086271;28;20058;-77
2022/01/10 02:43:08;;;;;;;0.00;0.00;;;;;19.40;100662.00;;;;5085118;28;20040;-77
2022/01/10 02:45:38;;;;;;;0.00;0.00;;;;;19.30;100663.00;;;;5086060;28;20495;-77
2022/01/10 02:48:09;;;;;;;0.00;0.00;;;;;19.20;100656.00;;;;5086695;28;20115;-78
2022/01/10 02:50:39;;;;;;;0.00;0.00;;;;;19.00;100655.00;;;;5085095;28;20084;-77
2022/01/10 02:53:09;;;;;;;0.00;0.00;;;;;19.00;100654.00;;;;5084734;28;20498;-78
2022/01/10 02:55:40;;;;;;;0.00;0.00;;;;;19.00;100641.00;;;;5085128;28;20139;-77
2022/01/10 02:58:11;;;;;;;;;;;;;19.00;100656.00;;;;5085560;28;20043;-77
2022/01/10 03:00:41;;;;;;;0.00;0.00;;;;;18.90;100638.00;;;;5071891;28;19921;-77
2022/01/10 03:03:11;;;;;;;0.00;0.00;;;;;18.80;100643.00;;;;5066511;28;20393;-77
2022/01/10 03:05:40;;;;;;;0.00;0.00;;;;;18.70;100635.00;;;;5066662;28;20049;-78
2022/01/10 03:08:10;;;;;;;0.00;0.00;;;;;18.60;100643.00;;;;5048047;28;20151;-77
2022/01/10 03:10:39;;;;;;;0.00;0.00;;;;;18.50;100654.00;;;;5065026;28;20052;-78
2022/01/10 03:13:09;;;;;;;0.00;0.00;;;;;18.60;100650.00;;;;5065064;28;20064;-78
2022/01/10 03:15:38;;;;;;;0.00;0.00;;;;;18.60;100651.00;;;;5070331;28;20040;-77
2022/01/10 03:18:08;;;;;;;0.00;0.00;;;;;18.50;100627.00;;;;5069259;28;20071;-77
2022/01/10 03:20:38;;;;;;;0.00;0.00;;;;;18.40;100638.00;;;;5068424;28;20060;-78
2022/01/10 03:23:07;;;;;;;0.00;0.00;;;;;18.30;100634.00;;;;5068906;28;20052;-79
2022/01/10 03:25:37;;;;;;;0.00;0.00;;;;;18.20;100620.00;;;;5070077;28;20052;-77
2022/01/10 03:28:13;;;;;;;0.00;0.00;;;;;18.20;100616.00;;;;5070040;28;20066;-77
2022/01/10 03:30:44;;;;;;;0.00;0.00;;;;;18.20;100632.00;;;;5068931;28;20063;-77
2022/01/10 03:33:17;;;;;;;0.00;0.00;;;;;18.10;100614.00;;;;5068166;28;20515;-77
2022/01/10 03:35:47;;;;;;;0.00;0.00;;;;;18.20;100607.00;;;;5068876;28;20049;-77
2022/01/10 03:38:18;;;;;;;0.00;0.00;;;;;18.30;100619.00;;;;5068948;28;20127;-77
2022/01/10 03:40:48;;;;;;;0.00;0.00;;;;;18.20;100620.00;;;;5068201;28;20439;-77
2022/01/10 03:43:22;;;;;;;0.00;0.00;;;;;18.20;100621.00;;;;5068344;28;20056;-76
2022/01/10 03:45:52;;;;;;;0.00;0.00;;;;;18.20;100606.00;;;;5069257;28;20048;-77
2022/01/10 03:48:22;;;;;;;0.00;0.00;;;;;18.10;100601.00;;;;5069031;28;20060;-77
2022/01/10 03:50:51;;;;;;;0.00;0.00;;;;;18.10;100610.00;;;;5067807;28;20064;-77
2022/01/10 03:53:22;;;;;;;0.00;0.00;;;;;18.10;100608.00;;;;5067825;28;20047;-77
2022/01/10 03:55:53;;;;;;;0.00;0.00;;;;;18.10;100589.00;;;;5067827;28;20080;-77
2022/01/10 03:58:22;;;;;;;0.00;0.00;;;;;18.00;100588.00;;;;5067299;28;20422;-76
2022/01/10 04:00:52;;;;;;;0.00;0.00;;;;;17.90;100583.00;;;;5067606;28;20052;-77
2022/01/10 04:03:22;;;;;;;0.00;0.00;;;;;17.80;100597.00;;;;5069866;28;20097;-77
2022/01/10 04:06:01;;;;;;;0.00;0.00;;;;;17.80;100589.00;;;;5067950;28;20078;-77
2022/01/10 04:08:35;;;;;;;0.00;0.00;;;;;17.70;100581.00;;;;5067552;28;20131;-77
2022/01/10 04:11:05;;;;;;;0.00;0.00;;;;;17.60;100580.00;;;;5068480;28;20076;-77
2022/01/10 04:13:35;;;;;;;0.00;0.00;;;;;17.60;100598.00;;;;5068287;28;20083;-77
2022/01/10 04:16:04;;;;;;;0.00;0.00;;;;;17.50;100569.00;;;;5069390;28;20396;-77
2022/01/10 04:18:34;;;;;;;0.00;0.00;;;;;17.60;100589.00;;;;5068239;28;20147;-77
2022/01/10 04:21:03;;;;;;;0.00;0.00;;;;;17.50;100580.00;;;;5067774;28;20454;-77
2022/01/10 04:23:33;;;;;;;0.00;0.00;;;;;17.50;100589.00;;;;5069028;28;20076;-77
2022/01/10 04:26:03;;;;;;;0.00;0.00;;;;;17.50;100588.00;;;;5067123;28;20131;-77
2022/01/10 04:28:35;;;;;;;0.00;0.00;;;;;17.60;100598.00;;;;5067730;28;20045;-77
2022/01/10 04:31:05;;;;;;;0.00;0.00;;;;;17.60;100587.00;;;;5068955;28;20070;-77
2022/01/10 04:33:34;;;;;;;0.00;0.00;;;;;17.60;100583.00;;;;5068757;28;20052;-78
2022/01/10 04:36:05;;;;;;;0.00;0.00;;;;;17.70;100579.00;;;;5067956;28;20060;-79
2022/01/10 04:38:42;;;;;;;0.00;0.00;;;;;17.70;100587.00;;;;5069116;28;20055;-79
2022/01/10 04:41:14;;;;;;;0.52;0.52;;;;;17.60;100571.00;;;;5067113;28;20063;-78
2022/01/10 04:43:44;;;;;;;0.00;0.00;;;;;17.60;100583.00;;;;5067249;28;20048;-78
2022/01/10 04:46:14;;;;;;;0.00;0.00;;;;;17.60;100583.00;;;;5067685;28;20052;-78
2022/01/10 04:48:44;;;;;;;0.00;0.00;;;;;17.50;100576.00;;;;5067856;28;20503;-76
2022/01/10 04:51:16;;;;;;;0.00;0.00;;;;;17.50;100577.00;;;;5066968;28;20048;-77
2022/01/10 04:53:50;;;;;;;0.00;0.00;;;;;17.50;100570.00;;;;5066959;28;20052;-76
2022/01/10 04:56:23;;;;;;;0.00;0.00;;;;;17.40;100582.00;;;;5066723;28;20513;-78
2022/01/10 04:58:55;;;;;;;0.00;0.00;;;;;17.50;100574.00;;;;5066567;28;20614;-76
2022/01/10 05:01:25;;;;;;;0.00;0.00;;;;;17.40;100566.00;;;;5066951;28;20098;-76
2022/01/10 05:03:58;;;;;;;0.00;0.00;;;;;17.40;100562.00;;;;5067401;28;20075;-78
2022/01/10 05:06:28;;;;;;;0.00;0.00;;;;;17.40;100579.00;;;;5066838;28;20483;-76
2022/01/10 05:08:58;;;;;;;0.00;0.00;;;;;17.30;100568.00;;;;5068420;28;20460;-76
2022/01/10 05:11:40;;;;;;;;;;;;;17.30;100568.00;;;;5067029;28;20147;-76
2022/01/10 05:14:10;;;;;;;0.00;0.00;;;;;17.20;100553.00;;;;5066542;28;19925;-76
2022/01/10 05:16:41;;;;;;;0.00;0.00;;;;;17.30;100564.00;;;;5066661;28;20423;-77
2022/01/10 05:19:10;;;;;;;0.00;0.00;;;;;17.30;100551.00;;;;5066960;28;20082;-78
2022/01/10 05:21:40;;;;;;;0.00;0.00;;;;;17.30;100550.00;;;;5066299;28;20048;-78
2022/01/10 05:24:10;;;;;;;0.00;0.00;;;;;17.20;100544.00;;;;5067200;28;20052;-76
2022/01/10 05:26:39;;;;;;;0.00;0.00;;;;;17.30;100538.00;;;;5067787;28;20145;-77
2022/01/10 05:29:12;;;;;;;0.00;0.00;;;;;17.40;100538.00;;;;5066629;28;20056;-77
2022/01/10 05:31:42;;;;;;;0.00;0.00;;;;;17.30;100531.00;;;;5066065;28;20701;-77
2022/01/10 05:34:48;;;;;;;1.15;0.38;;;;;17.30;100538.00;;;;4987085;28;20078;-77
2022/01/10 05:37:19;;;;;;;0.00;0.00;;;;;17.20;100531.00;;;;5053838;28;20094;-76
2022/01/10 05:39:49;;;;;;;0.00;0.00;;;;;17.20;100544.00;;;;5067538;28;20120;-76
2022/01/10 05:42:20;;;;;;;0.00;0.00;;;;;17.10;100541.00;;;;5067174;28;20044;-76
2022/01/10 05:44:51;;;;;;;0.00;0.00;;;;;17.10;100535.00;;;;5067531;28;20041;-77
2022/01/10 05:47:22;;;;;;;0.00;0.00;;;;;17.00;100535.00;;;;5066312;28;20092;-77
2022/01/10 05:50:00;;;;;;;;;;;;;17.00;100538.00;;;;5067467;28;20079;-77
2022/01/10 05:52:36;;;;;;;0.00;0.00;;;;;17.00;100528.00;;;;5065886;28;19943;-77
2022/01/10 05:55:06;;;;;;;0.00;0.00;;;;;16.90;100520.00;;;;5049418;28;20144;-77
2022/01/10 05:57:39;;;;;;;0.00;0.00;;;;;16.90;100501.00;;;;5065903;28;20048;-77
2022/01/10 06:00:10;;;;;;;0.00;0.00;;;;;16.90;100527.00;;;;5065682;28;20048;-77
2022/01/10 06:02:42;;;;;;;0.00;0.00;;;;;16.90;100522.00;;;;5066992;28;20059;-77
2022/01/10 06:05:29;;;;;;;0.00;0.00;;;;;17.00;100512.00;;;;5065685;28;20455;-77
2022/01/10 06:08:05;;;;;;;0.00;0.00;;;;;17.10;100500.00;;;;5065524;28;20117;-77
2022/01/10 06:10:38;;;;;;;0.00;0.00;;;;;17.10;100512.00;;;;5065525;28;20044;-77
2022/01/10 06:13:21;;;;;;;0.00;0.00;;;;;17.10;100504.00;;;;5065434;28;20048;-77
2022/01/10 06:15:51;;;;;;;0.00;0.00;;;;;17.10;100502.00;;;;5065061;28;20454;-77
2022/01/10 06:18:21;;;;;;;0.00;0.00;;;;;17.10;100508.00;;;;5065876;28;20515;-77
2022/01/10 06:20:51;;;;;;;0.00;0.00;;;;;17.00;100518.00;;;;5065757;28;20045;-77
2022/01/10 06:23:21;;;;;;;0.00;0.00;;;;;17.00;100510.00;;;;5065318;28;20102;-77
2022/01/10 06:25:52;;;;;;;0.00;0.00;;;;;16.90;100534.00;;;;5065422;28;20071;-77
2022/01/10 06:28:23;;;;;;;0.00;0.00;;;;;16.90;100517.00;;;;5064960;28;20512;-77
2022/01/10 06:30:55;;;;;;;0.00;0.00;;;;;16.80;100521.00;;;;5064760;28;20044;-77
2022/01/10 06:33:31;;;;;;;0.00;0.00;;;;;16.80;100520.00;;;;5064954;28;20129;-77
2022/01/10 06:36:01;;;;;;;0.00;0.00;;;;;16.90;100507.00;;;;5064916;28;20052;-77
2022/01/10 06:38:30;;;;;;;0.00;0.00;;;;;16.80;100526.00;;;;5064846;28;20049;-77
2022/01/10 06:41:00;;;;;;;0.00;0.00;;;;;16.70;100508.00;;;;5064424;28;20522;-77
2022/01/10 06:43:31;;;;;;;0.00;0.00;;;;;16.70;100516.00;;;;5064721;28;20098;-77
2022/01/10 06:46:04;;;;;;;0.00;0.00;;;;;16.60;100495.00;;;;5065320;28;20052;-77
2022/01/10 06:48:34;;;;;;;0.00;0.00;;;;;16.60;100514.00;;;;5064667;28;20132;-76
2022/01/10 06:51:04;;;;;;;0.00;0.00;;;;;16.50;100508.00;;;;5064703;28;20474;-77
2022/01/10 06:53:33;;;;;;;0.00;0.00;;;;;16.50;100508.00;;;;5064948;28;20064;-77
2022/01/10 06:56:05;;;;;;;0.00;0.00;;;;;16.40;100517.00;;;;5064928;28;20136;-77
2022/01/10 06:58:37;;;;;;;0.00;0.00;;;;;16.50;100515.00;;;;5065171;28;20055;-76
2022/01/10 07:01:11;;;;;;;0.00;0.00;;;;;16.50;100499.00;;;;5065034;28;20045;-77
2022/01/10 07:03:41;;;;;;;0.00;0.00;;;;;16.40;100517.00;;;;5064531;28;20095;-77
2022/01/10 07:06:17;;;;;;;0.00;0.00;;;;;16.40;100516.00;;;;5064773;28;20098;-77
2022/01/10 07:08:47;;;;;;;0.00;0.00;;;;;16.40;100501.00;;;;5064538;28;21178;-77
2022/01/10 07:11:19;;;;;;;0.00;0.00;;;;;16.30;100491.00;;;;5064942;28;20052;-77
2022/01/10 07:13:49;;;;;;;0.00;0.00;;;;;16.30;100492.00;;;;5064701;28;20144;-77
2022/01/10 07:16:21;;;;;;;0.00;0.00;;;;;16.30;100508.00;;;;5065883;28;20512;-77
2022/01/10 07:18:59;;;;;;;0.00;0.00;;;;;16.20;100506.00;;;;5064610;28;20052;-76
2022/01/10 07:21:38;;;;;;;0.00;0.00;;;;;16.00;100511.00;;;;5064487;28;20040;-77
2022/01/10 07:24:11;;;;;;;0.00;0.00;;;;;16.00;100510.00;;;;5064315;28;20090;-76
2022/01/10 07:26:41;;;;;;;0.00;0.00;;;;;16.00;100516.00;;;;5066137;28;20446;-77
2022/01/10 07:29:11;;;;;;;0.00;0.00;;;;;16.00;100519.00;;;;5066050;28;20049;-76
2022/01/10 07:31:41;;;;;;;;;;;;;16.00;100522.00;;;;5066600;28;20079;-77
2022/01/10 07:34:13;;;;;;;0.00;0.00;;;;;16.00;100524.00;;;;5066161;28;19970;-77
2022/01/10 07:36:44;;;;;;;0.00;0.00;;;;;16.00;100527.00;;;;5065322;28;20616;-77
2022/01/10 07:39:13;;;;;;;0.00;0.00;;;;;15.90;100524.00;;;;5065077;28;20045;-78
2022/01/10 07:41:46;;;;;;;0.00;0.00;;;;;16.00;100515.00;;;;5065572;28;20041;-77
2022/01/10 07:44:26;;;;;;;0.00;0.00;;;;;16.00;100529.00;;;;5064510;28;20047;-76
2022/01/10 07:46:58;;;;;;;0.00;0.00;;;;;16.00;100524.00;;;;5065667;28;20136;-76
2022/01/10 07:49:28;;;;;;;0.00;0.00;;;;;15.90;100536.00;;;;5064931;28;20124;-76
2022/01/10 07:51:57;;;;;;;0.00;0.00;;;;;15.90;100535.00;;;;5065318;28;20057;-76
2022/01/10 07:54:27;;;;;;;0.00;0.00;;;;;15.90;100524.00;;;;5064018;28;20072;-76
2022/01/10 07:56:58;;;;;;;0.00;0.00;;;;;15.90;100535.00;;;;5065568;28;20466;-76
2022/01/10 07:59:27;;;;;;;;;;;;;15.80;100551.00;;;;5066404;28;20056;-76
2022/01/10 08:01:57;;;;;;;0.00;0.00;;;;;15.80;100527.00;;;;5066894;28;19931;-76
2022/01/10 08:04:27;;;;;;;0.00;0.00;;;;;15.90;100541.00;;;;5069101;28;20418;-76
2022/01/10 08:06:56;;;;;;;0.00;0.00;;;;;15.90;100541.00;;;;5068726;28;20110;-76
2022/01/10 08:09:26;;;;;;;0.00;0.00;;;;;15.90;100537.00;;;;5068665;28;20044;-76
2022/01/10 08:11:59;;;;;;;0.00;0.00;;;;;15.80;100546.00;;;;5069049;28;20045;-76
2022/01/10 08:14:31;;;;;;;0.00;0.00;;;;;15.80;100528.00;;;;5068980;28;20048;-76
2022/01/10 08:17:01;;;;;;;0.00;0.00;;;;;15.90;100543.00;;;;5068872;28;20051;-76
2022/01/10 08:19:33;;;;;;;0.00;0.00;;;;;15.90;100549.00;;;;5068646;28;20064;-76
2022/01/10 08:22:04;;;;;;;0.00;0.00;;;;;16.00;100540.00;;;;5069116;28;20079;-76
2022/01/10 08:24:34;;;;;;;0.60;0.60;;;;;16.00;100537.00;;;;5068722;28;20765;-76
2022/01/10 08:27:03;;;;;;;0.00;0.00;;;;;16.00;100548.00;;;;5068661;28;20045;-77
2022/01/10 08:29:33;;;;;;;0.00;0.00;;;;;16.00;100549.00;;;;5068575;28;20071;-77
2022/01/10 08:32:03;;;;;;;0.00;0.00;;;;;16.10;100561.00;;;;5068549;28;20123;-76
2022/01/10 08:34:36;;;;;;;0.32;0.32;;;;;16.10;100553.00;;;;5068775;28;20044;-76
2022/01/10 08:37:05;;;;;;;0.00;0.00;;;;;16.10;100550.00;;;;5068862;28;20199;-77
2022/01/10 08:39:35;;;;;;;0.00;0.00;;;;;16.10;100559.00;;;;5067951;28;20052;-77
2022/01/10 08:42:05;;;;;;;0.00;0.00;;;;;16.10;100570.00;;;;5066808;28;20049;-77
2022/01/10 08:44:34;;;;;;;0.00;0.00;;;;;16.10;100560.00;;;;5068126;28;20036;-76
2022/01/10 08:47:04;;;;;;;0.00;0.00;;;;;16.10;100573.00;;;;5067552;28;20492;-76
2022/01/10 08:49:34;;;;;;;0.00;0.00;;;;;16.10;100577.00;;;;5068374;28;20576;-77
2022/01/10 08:52:04;;;;;;;0.00;0.00;;;;;16.20;100571.00;;;;5066729;28;20114;-76
2022/01/10 08:54:33;;;;;;;0.00;0.00;;;;;16.20;100563.00;;;;5068278;28;20131;-77
2022/01/10 08:57:03;;;;;;;0.28;0.17;;;;;16.30;100574.00;;;;5068287;28;20094;-77
2022/01/10 08:59:33;;;;;;;0.00;0.00;;;;;16.30;100570.00;;;;5068187;28;20050;-77
2022/01/10 09:02:03;;;;;;;0.00;0.00;;;;;16.30;100569.00;;;;5067677;28;20040;-76
2022/01/10 09:04:32;;;;;;;0.00;0.00;;;;;16.40;100562.00;;;;5067292;28;20531;-77
2022/01/10 09:07:02;;;;;;;0.00;0.00;;;;;16.40;100564.00;;;;5066706;28;20052;-76
2022/01/10 09:09:32;;;;;;;0.00;0.00;;;;;16.50;100567.00;;;;5068228;28;20052;-77
2022/01/10 09:12:02;;;;;;;0.00;0.00;;;;;16.60;100577.00;;;;5067434;28;20052;-77
2022/01/10 09:14:31;;;;;;;0.00;0.00;;;;;16.60;100567.00;;;;5068457;28;20040;-78
2022/01/10 09:17:01;;;;;;;0.00;0.00;;;;;16.60;100561.00;;;;5067762;28;20074;-77
2022/01/10 09:19:31;;;;;;;0.00;0.00;;;;;16.70;100590.00;;;;5067533;28;20044;-77
2022/01/10 09:22:00;;;;;;;0.00;0.00;;;;;16.90;100578.00;;;;5067595;28;20059;-77
2022/01/10 09:24:30;;;;;;;0.00;0.00;;;;;16.90;100587.00;;;;5067690;28;20808;-77
2022/01/10 09:27:06;;;;;;;0.00;0.00;;;;;17.00;100602.00;;;;5067302;28;20052;-77
2022/01/10 09:29:35;;;;;;;0.00;0.00;;;;;17.00;100591.00;;;;5066770;28;20147;-77
2022/01/10 09:32:05;;;;;;;0.00;0.00;;;;;17.10;100605.00;;;;5067360;28;20217;-77
2022/01/10 09:34:34;;;;;;;0.00;0.00;;;;;17.20;100596.00;;;;5067392;28;20053;-77
2022/01/10 09:37:04;;;;;;;0.00;0.00;;;;;17.20;100595.00;;;;5066298;28;20439;-77
2022/01/10 09:39:34;;;;;;;0.00;0.00;;;;;18.50;100484.00;;;;5067172;28;20037;-77
2022/01/10 09:42:04;;;;;;;0.00;0.00;;;;;21.50;100428.00;;;;5066396;28;20063;-77
2022/01/10 09:44:34;;;;;;;0.00;0.00;;;;;21.20;100547.00;;;;5067805;28;20052;-77
2022/01/10 09:47:03;;;;;;;0.00;0.00;;;;;19.40;100591.00;;;;5067192;28;20049;-78
2022/01/10 09:49:33;;;;;;;0.00;0.00;;;;;18.80;100581.00;;;;5065631;28;20056;-76
2022/01/10 09:52:04;;;;;;;0.00;0.00;;;;;18.60;100576.00;;;;5066596;28;20102;-76
2022/01/10 09:54:35;;;;;;;0.00;0.00;;;;;19.80;100512.00;;;;5066647;28;20044;-77
2022/01/10 09:57:05;;;;;;;0.00;0.00;;;;;21.10;100475.00;;;;5066768;28;20044;-76
2022/01/10 09:59:35;;;;;;;0.00;0.00;;;;;22.50;100466.00;;;;5065181;28;20037;-76
2022/01/10 10:02:05;;;;;;;0.00;0.00;;;;;23.00;100488.00;;;;5067356;28;20122;-77
2022/01/10 10:04:39;;;;;;;0.00;0.00;;;;;22.30;100524.00;;;;5066648;28;20040;-77
2022/01/10 10:07:08;;;;;;;0.00;0.00;;;;;21.70;100492.00;;;;5066753;28;20471;-77
2022/01/10 10:09:39;;;;;;;0.00;0.00;;;;;25.20;100399.00;;;;5066860;28;20048;-77
2022/01/10 10:12:10;;;;;;;0.00;0.00;;;;;24.20;100515.00;;;;5067028;28;20128;-77
2022/01/10 10:14:41;;;;;;;0.00;0.00;;;;;21.30;100562.00;;;;5066188;28;20066;-77
2022/01/10 10:17:17;;;;;;;0.00;0.00;;;;;20.70;100573.00;;;;5066508;28;20458;-76
2022/01/10 10:19:47;;;;;;;0.10;0.00;;;;;20.30;100570.00;;;;5066131;28;20590;-77
2022/01/10 10:22:17;;;;;;;0.00;0.00;;;;;20.20;100580.00;;;;5066065;28;20458;-76
2022/01/10 10:24:50;;;;;;;0.00;0.00;;;;;20.20;100570.00;;;;5065779;28;20052;-76
2022/01/10 10:27:22;;;;;;;0.00;0.00;;;;;20.20;100575.00;;;;5066533;28;20044;-76
2022/01/10 10:30:16;;;;;;;34.72;31.98;;;;;20.30;100557.00;;;;5066468;28;20485;-77
2022/01/10 10:32:47;;;;;;;873.13;336.75;;;;;20.50;100581.00;;;;5066774;28;20048;-77
2022/01/10 10:35:19;;;;;;;0.00;0.00;;;;;21.50;100557.00;;;;5066590;28;20044;-78
2022/01/10 10:37:48;;;;;;;0.00;0.00;;;;;21.30;100566.00;;;;5065705;28;20075;-75
2022/01/10 10:40:18;;;;;;;0.00;0.00;;;;;21.20;100564.00;;;;5065550;28;20109;-77
2022/01/10 10:42:47;;;;;;;0.00;0.00;;;;;21.50;100545.00;;;;5066042;28;20132;-77
2022/01/10 10:45:17;;;;;;;0.00;0.00;;;;;22.10;100541.00;;;;5065839;28;20389;-77
2022/01/10 10:47:47;;;;;;;0.00;0.00;;;;;22.80;100509.00;;;;5067256;28;20082;-77
2022/01/10 10:50:16;;;;;;;0.00;0.00;;;;;22.80;100546.00;;;;5065829;28;20119;-77
2022/01/10 10:52:46;;;;;;;0.00;0.00;;;;;22.60;100542.00;;;;5065706;28;20090;-77
2022/01/10 10:55:18;;;;;;;0.00;0.00;;;;;23.10;100550.00;;;;5065431;28;20205;-77
2022/01/10 10:57:48;;;;;;;0.00;0.00;;;;;23.60;100567.00;;;;5064284;28;20045;-77
2022/01/10 11:00:19;;;;;;;0.00;0.00;;;;;22.70;100567.00;;;;5065170;28;20053;-77
2022/01/10 11:02:51;;;;;;;0.00;0.00;;;;;22.40;100575.00;;;;5066111;28;20669;-77
2022/01/10 11:05:22;;;;;;;0.00;0.00;;;;;22.50;100574.00;;;;5065814;28;20044;-77
2022/01/10 11:07:55;;;;;;;0.00;0.00;;;;;24.00;100511.00;;;;5066231;28;20051;-77
2022/01/10 11:10:25;;;;;;;0.00;0.00;;;;;26.30;100464.00;;;;5064949;28;20098;-77
2022/01/10 11:13:01;;;;;;;0.00;0.00;;;;;31.00;100389.00;;;;5065331;28;20048;-77
2022/01/10 11:15:32;;;;;;;0.00;0.00;;;;;32.10;100371.00;;;;5066971;28;20040;-77
2022/01/10 11:18:04;;;;;;;0.00;0.00;;;;;32.70;100367.00;;;;5064704;28;20135;-78
2022/01/10 11:20:45;;;;;;;0.10;0.10;;;;;33.00;100379.00;;;;5067198;28;20074;-81
2022/01/10 11:23:44;;;;;;;1.10;0.35;;;;;34.20;100375.00;;;;5066060;28;20070;-78
2022/01/10 11:26:14;;;;;;;0.00;0.00;;;;;34.90;100374.00;;;;5065320;28;20051;-78
2022/01/10 11:28:54;;;;;;;0.00;0.00;;;;;35.50;100366.00;;;;5066256;28;20037;-78
2022/01/10 11:31:27;;;;;;;0.00;0.00;;;;;35.60;100365.00;;;;5066526;28;20048;-79
2022/01/10 11:33:59;;;;;;;0.00;0.00;;;;;35.40;100337.00;;;;5066079;28;20040;-79
2022/01/10 11:36:30;;;;;;;0.17;0.10;;;;;35.00;100349.00;;;;5069300;28;20071;-78
2022/01/10 11:39:08;;;;;;;150.97;9.53;;;;;34.30;100332.00;;;;5070219;28;20037;-79
2022/01/10 11:41:38;;;;;;;0.00;0.00;;;;;33.90;100342.00;;;;5069839;28;20902;-79
2022/01/10 11:44:12;;;;;;;0.60;0.30;;;;;33.00;100360.00;;;;5068225;28;20036;-80
2022/01/10 11:46:42;;;;;;;0.30;0.30;;;;;32.90;100366.00;;;;5068911;28;20048;-79
2022/01/10 11:49:21;;;;;;;0.77;0.30;;;;;32.60;100379.00;;;;5069546;28;20507;-79
2022/01/10 11:51:51;;;;;;;0.20;0.20;;;;;32.40;100384.00;;;;5069703;28;20076;-82
2022/01/10 11:54:27;;;;;;;0.28;0.28;;;;;32.00;100386.00;;;;5068356;28;20052;-79
2022/01/10 11:57:03;;;;;;;0.00;0.00;;;;;31.30;100373.00;;;;5068900;28;20048;-80
2022/01/10 11:59:45;;;;;;;0.95;0.90;;;;;31.10;100376.00;;;;5051801;28;20040;-79
2022/01/10 12:02:18;;;;;;;0.10;0.10;;;;;30.60;100382.00;;;;5069659;28;20047;-79
2022/01/10 12:05:00;;;;;;;0.00;0.00;;;;;30.00;100401.00;;;;5069509;28;20129;-79
2022/01/10 12:07:30;;;;;;;;;;;;;29.50;100452.00;;;;5069779;28;20044;-79
2022/01/10 12:10:20;;;;;;;0.00;0.00;;;;;29.30;100488.00;;;;5069379;28;20406;-80
2022/01/10 12:12:54;;;;;;;0.00;0.00;;;;;29.30;100502.00;;;;5068971;28;20418;-79
2022/01/10 12:15:24;;;;;;;0.10;0.10;;;;;29.10;100507.00;;;;5069361;28;20052;-79
2022/01/10 12:17:53;;;;;;;0.00;0.00;;;;;29.10;100493.00;;;;5069303;28;21192;-80
2022/01/10 12:20:23;;;;;;;0.00;0.00;;;;;29.00;100500.00;;;;5068997;28;20036;-80
2022/01/10 12:22:54;;;;;;;0.10;0.10;;;;;29.40;100502.00;;;;5068887;28;20567;-80
2022/01/10 12:25:24;;;;;;;0.10;0.10;;;;;29.20;100495.00;;;;5068453;28;20534;-80
2022/01/10 12:27:56;;;;;;;0.60;0.30;;;;;29.40;100496.00;;;;5068658;28;20048;-80
2022/01/10 12:30:27;;;;;;;0.35;0.20;;;;;29.40;100485.00;;;;5069023;28;20105;-80
2022/01/10 12:32:57;;;;;;;0.00;0.00;;;;;29.10;100487.00;;;;5068662;28;20028;-81
2022/01/10 12:35:27;;;;;;;1.35;0.70;;;;;28.70;100493.00;;;;5068589;28;20209;-79
2022/01/10 12:37:59;;;;;;;0.00;0.00;;;;;29.00;100478.00;;;;5068452;28;20080;-79
2022/01/10 12:40:32;;;;;;;2.08;0.10;;;;;29.30;100475.00;;;;5068634;28;20051;-80
2022/01/10 12:43:02;;;;;;;0.50;0.13;;;;;28.90;100476.00;;;;5069084;28;20056;-78